createdAt,value
2022-12-09T00:04:47.696Z,0
2022-12-09T00:09:47.386Z,0
2022-12-09T00:14:47.514Z,0
2022-12-09T00:19:46.996Z,0
2022-12-09T00:24:47.255Z,0
2022-12-09T00:29:47.048Z,0
2022-12-09T00:34:47.678Z,0
2022-12-09T00:39:47.446Z,0
2022-12-09T00:44:47.766Z,0
2022-12-09T00:49:46.993Z,0
2022-12-09T00:54:47.505Z,0
2022-12-09T00:59:47.186Z,0
2022-12-09T01:04:47.877Z,0
2022-12-09T01:09:47.905Z,0.3
2022-12-09T01:14:47.172Z,0.3
2022-12-09T01:19:47.857Z,0.6
2022-12-09T01:24:47.129Z,0.6
2022-12-09T01:29:47.994Z,0.9
2022-12-09T01:34:47.714Z,0.9
2022-12-09T01:39:47.733Z,1.2
2022-12-09T01:44:47.924Z,1.2
2022-12-09T01:49:48.321Z,0.8
2022-12-09T01:54:47.303Z,0.8
2022-12-09T01:59:47.863Z,1.3
2022-12-09T02:04:47.862Z,1.3
2022-12-09T02:09:46.954Z,1.3
2022-12-09T02:14:47.330Z,1.3
2022-12-09T02:19:48.056Z,0.9
2022-12-09T02:24:47.299Z,0.9
2022-12-09T02:29:47.793Z,0.4
2022-12-09T02:34:47.392Z,0.4
2022-12-09T02:39:47.850Z,0.1
2022-12-09T02:44:47.700Z,0.1
2022-12-09T02:49:47.337Z,0.4
2022-12-09T02:54:48.267Z,0.4
2022-12-09T02:59:47.615Z,0.1
2022-12-09T03:04:47.272Z,0.1
2022-12-09T03:09:47.984Z,1.3
2022-12-09T03:14:47.333Z,1.3
2022-12-09T03:19:47.477Z,0.4
2022-12-09T03:24:47.379Z,0.4
2022-12-09T03:29:47.729Z,0.5
2022-12-09T03:34:47.115Z,0.5
2022-12-09T03:39:47.643Z,0.4
2022-12-09T03:44:47.601Z,0.4
2022-12-09T03:49:47.776Z,0.4
2022-12-09T03:54:47.226Z,0.4
2022-12-09T03:59:47.220Z,0.8
2022-12-09T04:04:47.754Z,0.8
2022-12-09T04:09:47.249Z,0.9
2022-12-09T04:14:47.148Z,0.9
2022-12-09T04:19:47.598Z,0.4
2022-12-09T04:24:48.013Z,0.4
2022-12-09T04:29:48.050Z,0.4
2022-12-09T04:34:47.877Z,0.4
2022-12-09T04:39:47.953Z,0.4
2022-12-09T04:44:47.426Z,0.4
2022-12-09T04:49:47.991Z,0.4
2022-12-09T04:54:48.046Z,0.4
2022-12-09T04:59:47.751Z,0.4
2022-12-09T05:04:47.666Z,0.4
2022-12-09T05:09:48.060Z,0.4
2022-12-09T05:14:47.512Z,0.4
2022-12-09T05:19:48.038Z,0.4
2022-12-09T05:24:47.684Z,0.4
2022-12-09T05:29:48.210Z,0.4
2022-12-09T05:34:48.012Z,0.4
2022-12-09T05:39:47.717Z,0.4
2022-12-09T05:44:47.698Z,0.4
2022-12-09T09:19:47.184Z,0.7
2022-12-09T09:24:48.321Z,0.7
2022-12-09T09:29:47.615Z,0.4
2022-12-09T09:34:48.372Z,0.4
2022-12-09T09:39:47.923Z,0.4
2022-12-09T09:44:47.910Z,0.4
2022-12-09T09:49:48.506Z,0.4
2022-12-09T09:54:47.976Z,0.4
2022-12-09T09:59:47.582Z,0.6
2022-12-09T10:04:47.913Z,0.6
2022-12-09T10:09:48.156Z,0.7
2022-12-09T10:14:47.754Z,0.7
2022-12-09T10:19:48.683Z,0.8
2022-12-09T10:24:47.906Z,0.8
2022-12-09T10:29:48.464Z,0.9
2022-12-09T10:34:47.696Z,0.9
2022-12-09T10:39:47.887Z,0.9
2022-12-09T10:44:47.684Z,0.9
2022-12-09T10:49:48.038Z,0.7
2022-12-09T10:54:48.342Z,0.7
2022-12-09T10:59:48.229Z,0.4
2022-12-09T11:04:48.469Z,0.4
2022-12-09T11:09:48.126Z,0.7
2022-12-09T11:14:47.277Z,0.7
2022-12-09T11:19:48.280Z,0.5
2022-12-09T11:24:48.325Z,0.5
2022-12-09T11:29:47.544Z,0.5
2022-12-09T11:34:47.825Z,0.5
2022-12-09T11:39:48.080Z,0.4
2022-12-09T11:44:47.473Z,0.4
2022-12-09T11:49:47.885Z,0.4
2022-12-09T11:54:47.394Z,0.4
2022-12-09T11:59:47.984Z,0.4
2022-12-09T12:04:48.064Z,0.4
2022-12-09T12:09:47.418Z,0.4
2022-12-09T12:14:47.842Z,0.4
2022-12-09T12:19:47.245Z,0.4
2022-12-09T12:24:47.594Z,0.4
2022-12-09T12:29:47.861Z,0.4
2022-12-09T12:34:48.220Z,0.4
2022-12-09T12:39:47.577Z,0.4
2022-12-09T12:44:47.835Z,0.4
2022-12-09T12:49:48.290Z,0.5
2022-12-09T12:54:47.721Z,0.5
2022-12-09T12:59:48.028Z,0.4
2022-12-09T13:04:47.458Z,0.4
2022-12-09T13:09:48.038Z,0.4
2022-12-09T13:14:51.917Z,0.4
2022-12-09T13:19:47.950Z,0.4
2022-12-09T13:24:48.165Z,0.4
2022-12-09T13:29:47.469Z,0.4
2022-12-09T13:34:47.782Z,0.4
2022-12-09T13:39:48.109Z,0.6
2022-12-09T13:44:47.365Z,0.6
2022-12-09T13:49:47.720Z,0.9
2022-12-09T13:54:48.194Z,0.9
2022-12-09T13:59:47.783Z,0.4
2022-12-09T14:04:48.142Z,0.4
2022-12-09T14:09:47.948Z,0.9
2022-12-09T14:14:47.604Z,0.9
2022-12-09T14:19:48.038Z,0.7
2022-12-09T14:24:47.555Z,0.7
2022-12-09T14:29:47.859Z,0.9
2022-12-09T14:34:48.232Z,0.9
2022-12-09T14:39:47.889Z,0.2
2022-12-09T14:44:47.470Z,0.2
2022-12-09T14:54:48.167Z,0
2022-12-09T14:59:48.270Z,0
2022-12-09T15:04:47.735Z,0
2022-12-09T15:09:47.854Z,0
2022-12-09T15:14:48.417Z,0
2022-12-09T15:20:00.587Z,0
2022-12-09T15:24:50.737Z,0
2022-12-09T15:29:47.723Z,0
2022-12-09T15:34:47.753Z,0
2022-12-09T15:39:48.181Z,0
2022-12-09T15:44:47.656Z,0
2022-12-09T15:49:47.376Z,0
2022-12-09T15:54:47.831Z,0
2022-12-09T15:59:52.385Z,0
2022-12-09T16:04:47.568Z,0
2022-12-09T16:09:48.116Z,0
2022-12-09T16:14:47.668Z,0
2022-12-09T16:19:48.241Z,0
2022-12-09T16:29:48.290Z,0
2022-12-09T16:34:47.776Z,0
2022-12-09T16:39:48.013Z,0
2022-12-09T16:44:47.463Z,0
2022-12-09T16:49:47.909Z,0
2022-12-09T16:54:47.566Z,0
2022-12-09T16:59:48.018Z,0
2022-12-09T17:04:48.275Z,0
2022-12-09T17:09:48.191Z,0
2022-12-09T17:14:47.792Z,0
2022-12-09T17:19:47.481Z,0.4
2022-12-09T17:24:47.845Z,0.4
2022-12-09T17:29:48.326Z,0.4
2022-12-09T17:34:47.928Z,0.4
2022-12-09T17:39:53.108Z,0.3
2022-12-09T17:44:47.745Z,0.3
2022-12-09T17:49:48.102Z,0
2022-12-09T17:54:47.509Z,0
2022-12-09T17:59:48.047Z,0
2022-12-09T18:04:48.425Z,0
2022-12-09T18:09:54.232Z,0
2022-12-09T18:14:48.103Z,0
2022-12-09T18:19:47.629Z,0
2022-12-09T18:24:47.852Z,0
2022-12-09T18:29:48.104Z,0
2022-12-09T18:34:48.504Z,0
2022-12-09T18:39:47.671Z,0.2
2022-12-09T18:44:48.136Z,0.2
2022-12-09T18:49:48.336Z,0.6
2022-12-09T18:54:47.839Z,0.6
2022-12-09T18:59:48.363Z,1.3
2022-12-09T19:04:47.601Z,1.3
2022-12-09T19:09:48.102Z,1.4
2022-12-09T19:14:48.243Z,1.4
2022-12-09T19:19:47.531Z,1.7
2022-12-09T19:24:47.994Z,1.7
2022-12-09T19:29:48.353Z,1.3
2022-12-09T19:34:48.068Z,1.3
2022-12-09T19:39:47.612Z,1.7
2022-12-09T19:45:00.937Z,1.7
2022-12-09T19:49:47.692Z,1.6
2022-12-09T19:54:48.033Z,1.6
2022-12-09T19:59:48.333Z,1.3
2022-12-09T20:04:49.601Z,1.3
2022-12-09T20:09:47.668Z,1.3
2022-12-09T20:14:48.165Z,1.3
2022-12-09T20:19:48.159Z,1.3
2022-12-09T20:24:48.471Z,1.3
2022-12-09T20:29:47.737Z,1.1
2022-12-09T20:34:47.545Z,1.1
2022-12-09T20:39:48.229Z,0.9
2022-12-09T20:44:47.716Z,0.9
2022-12-09T20:49:48.152Z,0.9
2022-12-09T20:54:48.303Z,0.9
2022-12-09T20:59:47.906Z,0.9
2022-12-09T21:04:48.326Z,0.9
2022-12-09T21:09:47.992Z,0.9
2022-12-09T21:14:47.731Z,0.9
2022-12-09T21:19:47.984Z,0.4
2022-12-09T21:24:47.884Z,0.4
2022-12-09T21:29:48.315Z,1.2
2022-12-09T21:34:48.172Z,1.2
2022-12-09T21:39:48.713Z,0.9
2022-12-09T21:44:48.392Z,0.9
2022-12-09T21:49:48.484Z,0.9
2022-12-09T21:54:53.710Z,0.9
2022-12-09T21:59:48.516Z,0.4
2022-12-09T22:05:19.541Z,0.4
2022-12-09T22:09:48.113Z,0.9
2022-12-09T22:14:47.732Z,0.9
2022-12-09T22:19:56.347Z,0.4
2022-12-09T22:24:47.731Z,0.4
2022-12-09T22:29:48.125Z,0.4
2022-12-09T22:34:48.531Z,0.4
2022-12-09T22:39:47.738Z,0.4
2022-12-09T22:44:48.086Z,0.4
2022-12-09T22:49:48.823Z,0.4
2022-12-09T22:54:48.248Z,0.4
2022-12-09T22:59:47.658Z,0.6
2022-12-09T23:04:48.280Z,0.6
2022-12-09T23:09:48.310Z,0.4
2022-12-09T23:14:48.462Z,0.4
2022-12-09T23:19:48.028Z,0.6
2022-12-09T23:24:47.964Z,0.6
2022-12-09T23:29:48.228Z,0.9
2022-12-09T23:34:48.549Z,0.9
2022-12-09T23:39:48.219Z,0.4
2022-12-09T23:44:48.515Z,0.4
2022-12-09T23:49:48.103Z,0.4
2022-12-09T23:54:48.531Z,0.4
2022-12-09T23:59:48.488Z,0.4
